Time;durP1;ratioP1;P1;durP2;ratioP2;P2;SDS_P1;SDS_P2;PMS_P1;PMS_P2;Temp;Humidity;BMP_temperature;BMP_pressure;BME280_temperature;BME280_humidity;BME280_pressure;Samples;Min_cycle;Max_cycle;Signal;HPM_P1;HPM_P2
2024/01/20 00:00:44;;;;;;;20.00;12.50;;;;;;;-1.96;100.00;99589.35;109447;1253;58951;-75
2024/01/20 00:03:31;;;;;;;24.90;14.10;;;;;;;-1.95;100.00;99586.89;109475;1254;59117;-75
2024/01/20 00:05:57;;;;;;;22.70;14.10;;;;;;;-1.96;100.00;99590.90;109459;1251;66746;-74
2024/01/20 00:08:24;;;;;;;24.30;13.80;;;;;;;-1.96;100.00;99599.61;109480;1251;61047;-76
2024/01/20 00:10:50;;;;;;;19.60;12.50;;;;;;;-1.96;100.00;99606.23;109246;1253;65119;-75
2024/01/20 00:13:17;;;;;;;24.00;15.00;;;;;;;-1.96;100.00;99602.41;109464;1251;59248;-75
2024/01/20 00:15:43;;;;;;;21.20;13.60;;;;;;;-1.97;100.00;99600.15;109240;1251;59046;-76
2024/01/20 00:18:10;;;;;;;25.20;14.00;;;;;;;-1.98;100.00;99600.84;109421;1251;67161;-75
2024/01/20 00:24:24;;;;;;;24.90;15.10;;;;;;;-1.98;100.00;99606.59;109448;1251;62384;-75
2024/01/20 00:26:51;;;;;;;26.90;14.30;;;;;;;-1.99;100.00;99607.99;109455;1252;59258;-74
2024/01/20 00:29:17;;;;;;;26.30;14.50;;;;;;;-1.99;100.00;99610.61;109439;1251;59077;-73
2024/01/20 00:31:44;;;;;;;28.70;15.40;;;;;;;-1.98;100.00;99608.50;109470;1251;66051;-75
2024/01/20 00:34:10;;;;;;;24.60;15.40;;;;;;;-1.97;100.00;99613.20;109308;1251;61529;-75
2024/01/20 00:36:37;;;;;;;23.60;15.00;;;;;;;-1.97;100.00;99616.69;109461;1252;64211;-76
2024/01/20 00:39:04;;;;;;;24.00;13.30;;;;;;;-1.97;100.00;99619.30;109239;1251;59038;-75
2024/01/20 00:41:31;;;;;;;24.40;13.90;;;;;;;-1.97;100.00;99626.44;109440;1253;59010;-75
2024/01/20 00:43:58;;;;;;;22.50;12.90;;;;;;;-1.96;100.00;99635.31;109528;1251;65924;-74
2024/01/20 00:46:25;;;;;;;20.50;13.80;;;;;;;-1.95;100.00;99636.17;109467;1251;61447;-74
2024/01/20 00:48:52;;;;;;;17.60;11.30;;;;;;;-1.94;100.00;99641.73;109427;1251;64050;-74
2024/01/20 00:51:18;;;;;;;24.30;14.10;;;;;;;-1.93;100.00;99643.83;109446;1251;59136;-74
2024/01/20 00:53:45;;;;;;;21.60;13.30;;;;;;;-1.93;100.00;99645.04;109498;1251;59125;-75
2024/01/20 00:56:11;;;;;;;21.50;13.50;;;;;;;-1.92;100.00;99647.13;109470;1251;66833;-73
2024/01/20 00:58:38;;;;;;;19.80;12.70;;;;;;;-1.92;100.00;99648.34;108720;1251;1002389;-75
2024/01/20 01:01:05;;;;;;;18.30;12.70;;;;;;;-1.92;100.00;99653.91;109450;1251;65091;-74
2024/01/20 01:03:31;;;;;;;19.60;12.30;;;;;;;-1.91;100.00;99658.79;109435;1251;59000;-75
2024/01/20 01:05:58;;;;;;;17.50;11.40;;;;;;;-1.90;100.00;99654.24;109471;1251;58958;-73
2024/01/20 01:08:24;;;;;;;16.10;10.50;;;;;;;-1.89;100.00;99648.67;109456;1255;66032;-75
2024/01/20 01:10:54;;;;;;;17.10;10.10;;;;;;;-1.89;100.00;99651.11;109466;1251;60013;-73
2024/01/20 01:13:21;;;;;;;18.70;13.40;;;;;;;-1.89;100.00;99656.70;109431;1251;65137;-73
2024/01/20 01:15:48;;;;;;;18.40;11.30;;;;;;;-1.89;100.00;99657.22;109440;1255;59100;-74
2024/01/20 01:18:14;;;;;;;17.10;10.30;;;;;;;-1.89;100.00;99648.69;109481;1251;59343;-72
2024/01/20 01:20:41;;;;;;;14.60;10.00;;;;;;;-1.90;100.00;99646.95;109429;1251;66945;-74
2024/01/20 01:23:07;;;;;;;17.50;10.90;;;;;;;-1.91;100.00;99644.67;109474;1251;60059;-74
2024/01/20 01:25:34;;;;;;;14.90;10.10;;;;;;;-1.91;100.00;99644.33;109474;1251;65142;-75
2024/01/20 01:28:01;;;;;;;14.00;9.80;;;;;;;-1.91;100.00;99646.41;109438;1251;59260;-74
2024/01/20 01:30:28;;;;;;;16.30;10.20;;;;;;;-1.90;100.00;99648.85;109413;1254;59026;-74
2024/01/20 01:32:54;;;;;;;15.50;10.10;;;;;;;-1.89;100.00;99649.54;109463;1251;65903;-75
2024/01/20 01:35:21;;;;;;;16.20;10.20;;;;;;;-1.89;100.00;99646.58;109468;1251;60889;-75
2024/01/20 01:37:47;;;;;;;13.80;10.80;;;;;;;-1.88;100.00;99647.11;109451;1251;65364;-75
2024/01/20 01:40:14;;;;;;;15.60;9.90;;;;;;;-1.87;100.00;99648.48;109451;1255;59009;-75
2024/01/20 01:42:40;;;;;;;16.90;11.30;;;;;;;-1.87;100.00;99647.45;109475;1251;59008;-74
2024/01/20 01:45:07;;;;;;;14.10;9.80;;;;;;;-1.87;100.00;99651.45;109432;1251;65744;-74
2024/01/20 01:47:34;;;;;;;17.90;10.90;;;;;;;-1.87;100.00;99649.37;109471;1251;60076;-76
2024/01/20 01:50:02;;;;;;;14.50;9.90;;;;;;;-1.86;100.00;99644.83;109464;1251;65327;-76
2024/01/20 01:52:29;;;;;;;13.60;9.30;;;;;;;-1.86;100.00;99639.59;109471;1251;59055;-73
2024/01/20 01:54:56;;;;;;;15.60;9.60;;;;;;;-1.86;100.00;99639.77;108686;1252;1002554;-74
2024/01/20 01:57:24;;;;;;;15.90;10.90;;;;;;;-1.85;100.00;99640.11;109441;1255;66972;-75
2024/01/20 01:59:51;;;;;;;15.80;9.90;;;;;;;-1.86;100.00;99640.48;108676;1251;1002081;-74
2024/01/20 02:02:18;;;;;;;15.00;10.70;;;;;;;-1.87;100.00;99639.27;109434;1251;65110;-74
2024/01/20 02:04:44;;;;;;;13.80;9.50;;;;;;;-1.86;100.00;99635.60;109432;1251;58994;-74
2024/01/20 02:07:12;;;;;;;18.10;11.70;;;;;;;-1.86;100.00;99634.91;109465;1251;59036;-75
2024/01/20 02:09:39;;;;;;;12.50;9.20;;;;;;;-1.85;100.00;99643.95;109471;1251;66075;-75
2024/01/20 02:12:06;;;;;;;14.80;11.30;;;;;;;-1.84;100.00;99649.00;109462;1251;61249;-75
2024/01/20 02:14:33;;;;;;;14.80;9.90;;;;;;;-1.85;100.00;99648.82;109430;1251;65278;-75
2024/01/20 02:16:59;;;;;;;16.20;9.60;;;;;;;-1.85;100.00;99650.73;109393;1251;59061;-74
2024/01/20 02:19:26;;;;;;;13.90;9.10;;;;;;;-1.88;100.00;99653.02;109488;1251;59970;-75
2024/01/20 02:21:53;;;;;;;15.10;9.70;;;;;;;-1.89;100.00;99651.82;109449;1251;67061;-73
2024/01/20 02:24:19;;;;;;;13.40;8.10;;;;;;;-1.91;100.00;99656.88;109453;1251;61160;-74
2024/01/20 02:26:46;;;;;;;13.70;9.90;;;;;;;-1.94;100.00;99657.77;109422;1251;64963;-75
2024/01/20 02:29:12;;;;;;;14.10;8.70;;;;;;;-1.98;100.00;99657.60;109471;1251;58968;-75
2024/01/20 02:31:39;;;;;;;14.80;9.70;;;;;;;-2.04;100.00;99661.81;109469;1251;59824;-75
2024/01/20 02:34:06;;;;;;;12.40;9.00;;;;;;;-2.10;100.00;99662.71;109505;1251;65893;-75
2024/01/20 02:36:32;;;;;;;16.60;10.80;;;;;;;-2.16;100.00;99664.33;109470;1251;59710;-74
2024/01/20 02:38:59;;;;;;;14.40;8.70;;;;;;;-2.19;100.00;99667.64;109442;1251;62797;-75
2024/01/20 02:41:25;;;;;;;19.00;10.10;;;;;;;-2.19;100.00;99670.25;109455;1251;58930;-74
2024/01/20 02:43:52;;;;;;;14.70;8.40;;;;;;;-2.17;100.00;99670.07;109483;1251;60724;-75
2024/01/20 02:46:19;;;;;;;15.50;9.90;;;;;;;-2.15;100.00;99674.23;109443;1251;65919;-75
2024/01/20 02:48:45;;;;;;;12.50;8.40;;;;;;;-2.13;100.00;99674.92;109433;1251;61085;-76
2024/01/20 02:51:12;;;;;;;14.50;10.30;;;;;;;-2.12;100.00;99671.95;109454;1251;63952;-74
2024/01/20 02:53:38;;;;;;;10.60;9.10;;;;;;;-2.11;100.00;99671.77;108498;1251;1002322;-74
2024/01/20 02:56:05;;;;;;;15.70;9.90;;;;;;;-2.13;100.00;99674.23;109480;1251;59045;-76
2024/01/20 02:58:31;;;;;;;14.60;9.40;;;;;;;-2.15;100.00;99676.67;108709;1251;1003128;-75
2024/01/20 03:01:00;;;;;;;15.50;9.70;;;;;;;-2.17;100.00;99675.64;109348;1251;60687;-75
2024/01/20 03:03:27;;;;;;;15.60;9.00;;;;;;;-2.23;100.00;99676.54;109429;1251;63902;-74
2024/01/20 03:05:53;;;;;;;14.40;8.50;;;;;;;-2.29;100.00;99674.81;109445;1251;58913;-76
2024/01/20 03:08:20;;;;;;;11.00;7.00;;;;;;;-2.35;100.00;99676.92;109473;1251;59071;-75
2024/01/20 03:10:49;;;;;;;14.70;8.60;;;;;;;-2.41;100.00;99675.73;109479;1251;66974;-74
2024/01/20 03:13:16;;;;;;;10.70;8.40;;;;;;;-2.47;100.00;99678.36;109431;1251;59013;-75
2024/01/20 03:15:42;;;;;;;14.50;8.50;;;;;;;-2.52;100.00;99679.08;109462;1251;65252;-75
2024/01/20 03:18:10;;;;;;;12.40;8.80;;;;;;;-2.56;100.00;99682.23;109416;1251;58957;-76
2024/01/20 03:20:37;;;;;;;15.40;8.50;;;;;;;-2.60;100.00;99686.06;109127;1251;59499;-75
2024/01/20 03:23:04;;;;;;;17.10;9.30;;;;;;;-2.64;100.00;99684.67;109504;1251;67132;-75
2024/01/20 03:25:30;;;;;;;12.40;7.80;;;;;;;-2.68;100.00;99688.34;109454;1251;59418;-75
2024/01/20 03:27:57;;;;;;;15.70;8.40;;;;;;;-2.73;100.00;99689.56;109443;1251;59085;-75
2024/01/20 03:30:24;;;;;;;11.60;7.00;;;;;;;-2.78;100.00;99682.61;109434;1251;59228;-76
2024/01/20 03:32:51;;;;;;;11.40;8.00;;;;;;;-2.79;100.00;99683.83;109461;1251;59139;-75
2024/01/20 03:35:18;;;;;;;10.10;6.40;;;;;;;-2.80;100.00;99689.92;109397;1251;67194;-74
2024/01/20 03:37:44;;;;;;;11.90;6.90;;;;;;;-2.81;100.00;99688.20;109445;1251;61185;-73
2024/01/20 03:40:11;;;;;;;13.70;7.80;;;;;;;-2.83;100.00;99695.32;109464;1251;65160;-75
2024/01/20 03:42:38;;;;;;;10.40;7.20;;;;;;;-2.84;100.00;99695.32;109417;1251;59205;-77
2024/01/20 03:45:05;;;;;;;10.40;8.00;;;;;;;-2.86;100.00;99690.11;109434;1251;59705;-74
2024/01/20 03:47:32;;;;;;;12.40;7.20;;;;;;;-2.87;100.00;99686.63;109452;1251;64683;-75
2024/01/20 03:49:58;;;;;;;12.00;7.10;;;;;;;-2.89;100.00;99686.47;109352;1251;60100;-74
2024/01/20 03:52:25;;;;;;;13.50;7.20;;;;;;;-2.92;100.00;99681.60;109448;1251;65172;-74
2024/01/20 03:54:51;;;;;;;9.90;5.60;;;;;;;-2.94;100.00;99682.82;109353;1251;59030;-75
2024/01/20 03:57:18;;;;;;;9.10;6.70;;;;;;;-2.94;100.00;99688.05;109271;1251;58988;-74
2024/01/20 03:59:44;;;;;;;11.90;7.50;;;;;;;-2.93;100.00;99686.48;109357;1251;67240;-75
2024/01/20 04:02:11;;;;;;;11.70;7.40;;;;;;;-2.92;100.00;99688.73;109456;1251;61154;-75
2024/01/20 04:04:38;;;;;;;10.60;7.20;;;;;;;-2.93;100.00;99684.04;109431;1251;65030;-74
2024/01/20 04:07:05;;;;;;;10.40;7.70;;;;;;;-2.95;100.00;99682.48;109460;1251;59155;-74
2024/01/20 04:09:32;;;;;;;11.20;8.30;;;;;;;-2.97;100.00;99683.17;109430;1251;59335;-75
2024/01/20 04:11:58;;;;;;;12.70;8.10;;;;;;;-2.99;100.00;99683.34;109440;1251;67266;-75
2024/01/20 04:14:25;;;;;;;17.70;8.50;;;;;;;-3.02;100.00;99688.39;109527;1251;69677;-74
2024/01/20 04:16:52;;;;;;;10.90;6.90;;;;;;;-3.03;100.00;99687.52;109457;1251;65054;-75
2024/01/20 04:19:18;;;;;;;11.10;8.10;;;;;;;-3.02;100.00;99684.23;109459;1251;58952;-73
2024/01/20 04:21:45;;;;;;;12.60;8.80;;;;;;;-3.02;100.00;99692.40;109479;1251;58915;-74
2024/01/20 04:24:11;;;;;;;15.00;8.60;;;;;;;-3.02;100.00;99700.39;108715;1251;1002951;-76
2024/01/20 04:26:38;;;;;;;12.70;8.10;;;;;;;-3.03;100.00;99701.08;107947;1251;1002483;-75
2024/01/20 04:29:04;;;;;;;14.70;9.30;;;;;;;-3.05;100.00;99705.77;109143;1251;64095;-75
2024/01/20 04:31:31;;;;;;;13.60;8.40;;;;;;;-3.05;100.00;99711.86;108511;1251;1002576;-76
2024/01/20 04:33:58;;;;;;;11.90;7.70;;;;;;;-3.06;100.00;99715.16;108707;1251;1002561;-74
2024/01/20 04:36:25;;;;;;;15.40;8.90;;;;;;;-3.07;100.00;99720.03;109483;1251;65627;-75
2024/01/20 04:38:51;;;;;;;12.10;7.60;;;;;;;-3.07;100.00;99721.77;109156;1251;60049;-75
2024/01/20 04:41:18;;;;;;;12.10;7.10;;;;;;;-3.09;100.00;99718.47;109447;1251;64629;-76
2024/01/20 04:43:45;;;;;;;15.20;8.30;;;;;;;-3.10;100.00;99720.20;109443;1251;59186;-75
2024/01/20 04:46:12;;;;;;;10.90;7.60;;;;;;;-3.08;100.00;99716.55;109472;1251;59159;-75
2024/01/20 04:48:38;;;;;;;10.10;7.60;;;;;;;-3.07;100.00;99717.25;109428;1251;65977;-75
2024/01/20 04:51:05;;;;;;;15.40;8.80;;;;;;;-3.07;100.00;99717.60;109471;1251;61049;-74
2024/01/20 04:53:31;;;;;;;11.90;6.60;;;;;;;-3.08;100.00;99719.00;109420;1251;65308;-75
2024/01/20 04:55:58;;;;;;;12.90;6.50;;;;;;;-3.07;100.00;99727.86;109475;1251;59309;-74
2024/01/20 04:58:24;;;;;;;11.80;7.80;;;;;;;-3.06;100.00;99726.11;109498;1251;59032;-76
2024/01/20 05:00:51;;;;;;;12.60;8.10;;;;;;;-3.07;100.00;99725.77;109418;1251;66970;-75
2024/01/20 05:03:17;;;;;;;11.40;9.00;;;;;;;-3.08;100.00;99726.98;109421;1252;60029;-75
2024/01/20 05:05:44;;;;;;;13.90;8.00;;;;;;;-3.10;100.00;99732.55;109410;1252;65039;-75
2024/01/20 05:08:11;;;;;;;15.80;7.50;;;;;;;-3.10;100.00;99737.24;109395;1253;59222;-77
2024/01/20 05:10:37;;;;;;;13.20;7.30;;;;;;;-3.12;100.00;99738.64;109380;1252;58998;-76
2024/01/20 05:13:04;;;;;;;12.10;7.50;;;;;;;-3.13;100.00;99745.76;109425;1252;65959;-76
2024/01/20 05:15:31;;;;;;;8.00;5.90;;;;;;;-3.14;100.00;99745.22;109468;1252;59726;-73
2024/01/20 05:17:58;;;;;;;11.60;7.10;;;;;;;-3.17;100.00;99745.05;109406;1252;65267;-74
2024/01/20 05:20:25;;;;;;;17.80;9.30;;;;;;;-3.18;100.00;99745.75;109312;1253;59058;-75
2024/01/20 05:22:51;;;;;;;16.00;8.50;;;;;;;-3.18;100.00;99742.79;109270;1253;59054;-75
2024/01/20 05:25:18;;;;;;;12.80;8.10;;;;;;;-3.16;100.00;99742.27;109425;1252;67109;-75
2024/01/20 05:27:44;;;;;;;10.60;7.50;;;;;;;-3.14;100.00;99743.33;109444;1252;60268;-75
2024/01/20 05:30:12;;;;;;;12.10;7.50;;;;;;;-3.12;100.00;99742.63;109417;1252;65025;-74
2024/01/20 05:32:40;;;;;;;14.10;8.00;;;;;;;-3.11;100.00;99748.54;108629;1252;1002499;-75
2024/01/20 05:35:07;;;;;;;14.60;9.00;;;;;;;-3.09;100.00;99749.76;109342;1253;59020;-75
2024/01/20 05:37:34;;;;;;;12.70;7.20;;;;;;;-3.07;100.00;99749.58;109414;1252;67597;-75
2024/01/20 05:40:03;;;;;;;14.50;7.90;;;;;;;-3.06;100.00;99751.67;109429;1252;60846;-74
2024/01/20 05:42:30;;;;;;;14.30;8.60;;;;;;;-3.03;100.00;99757.92;108510;1252;1003101;-75
2024/01/20 05:44:56;;;;;;;12.70;8.00;;;;;;;-3.04;100.00;99759.66;108607;1252;1002880;-75
2024/01/20 05:47:23;;;;;;;12.50;7.30;;;;;;;-3.03;100.00;99750.63;108676;1252;1002203;-76
2024/01/20 05:49:49;;;;;;;8.40;5.40;;;;;;;-3.03;100.00;99745.23;108683;1252;1003128;-74
2024/01/20 05:52:16;;;;;;;11.30;8.00;;;;;;;-3.01;100.00;99749.41;109461;1253;59198;-73
2024/01/20 05:54:43;;;;;;;12.60;7.80;;;;;;;-3.00;100.00;99754.63;109099;1252;59425;-74
2024/01/20 05:57:09;;;;;;;12.20;7.60;;;;;;;-3.00;100.00;99757.92;109373;1252;59048;-73
2024/01/20 05:59:36;;;;;;;14.30;7.40;;;;;;;-3.00;100.00;99766.61;109422;1252;58914;-74
2024/01/20 06:02:02;;;;;;;12.40;8.70;;;;;;;-3.00;100.00;99785.57;109474;1252;67095;-76
2024/01/20 06:04:29;;;;;;;10.80;7.30;;;;;;;-3.00;100.00;99784.34;108667;1252;1003522;-75
2024/01/20 06:06:56;;;;;;;17.30;8.50;;;;;;;-3.00;100.00;99780.86;108674;1252;1002350;-74
2024/01/20 06:09:22;;;;;;;14.70;8.50;;;;;;;-3.00;100.00;99786.95;108646;1252;1002657;-74
2024/01/20 06:11:49;;;;;;;12.20;7.50;;;;;;;-3.03;100.00;99789.39;109428;1253;59025;-75
2024/01/20 06:14:15;;;;;;;14.00;8.20;;;;;;;-3.06;100.00;99789.73;109477;1252;67367;-75
2024/01/20 06:16:42;;;;;;;13.20;8.30;;;;;;;-3.08;100.00;99791.83;109431;1252;60107;-74
2024/01/20 06:19:08;;;;;;;10.60;7.40;;;;;;;-3.10;100.00;99797.90;109422;1252;65047;-75
2024/01/20 06:21:35;;;;;;;12.90;7.60;;;;;;;-3.09;100.00;99805.37;109423;1252;59011;-73
2024/01/20 06:24:02;;;;;;;12.20;7.50;;;;;;;-3.07;100.00;99801.73;109461;1252;58992;-75
2024/01/20 06:26:29;;;;;;;10.40;6.60;;;;;;;-3.08;100.00;99804.16;109413;1252;66977;-75
2024/01/20 06:28:56;;;;;;;13.80;7.70;;;;;;;-3.09;100.00;99806.42;109436;1252;61189;-76
2024/01/20 06:31:27;;;;;;;12.50;6.50;;;;;;;-3.10;100.00;99813.19;109427;1252;64071;-74
2024/01/20 06:33:54;;;;;;;16.20;8.70;;;;;;;-3.10;100.00;99818.23;108407;1253;1002460;-76
2024/01/20 06:36:21;;;;;;;14.80;8.00;;;;;;;-3.10;100.00;99819.80;109409;1252;59081;-76
2024/01/20 06:38:48;;;;;;;13.60;8.40;;;;;;;-3.08;100.00;99818.95;109373;1253;66307;-74
2024/01/20 06:41:15;;;;;;;16.80;8.50;;;;;;;-3.06;100.00;99818.24;109448;1252;61175;-77
2024/01/20 06:43:42;;;;;;;13.00;6.90;;;;;;;-3.02;100.00;99822.23;108279;1253;1002585;-76
2024/01/20 06:46:09;;;;;;;12.20;8.20;;;;;;;-2.98;100.00;99824.86;109427;1252;59001;-74
2024/01/20 06:48:35;;;;;;;14.40;7.90;;;;;;;-2.95;100.00;99824.86;109470;1252;59009;-75
2024/01/20 06:51:03;;;;;;;14.60;9.70;;;;;;;-2.92;100.00;99824.34;109448;1252;65944;-76
2024/01/20 06:53:31;;;;;;;10.80;8.00;;;;;;;-2.87;100.00;99827.30;109437;1252;61208;-76
2024/01/20 06:55:58;;;;;;;13.30;8.60;;;;;;;-2.80;100.00;99830.79;109411;1252;65146;-75
2024/01/20 06:58:25;;;;;;;9.10;7.10;;;;;;;-2.71;100.00;99830.61;109329;1253;59385;-77
2024/01/20 07:00:51;;;;;;;14.10;7.90;;;;;;;-2.64;100.00;99830.79;109281;1253;59088;-77
2024/01/20 07:03:18;;;;;;;12.50;8.50;;;;;;;-2.59;100.00;99832.70;109412;1252;67073;-78
2024/01/20 07:05:45;;;;;;;12.40;8.00;;;;;;;-2.53;100.00;99833.73;109411;1252;59262;-73
2024/01/20 07:08:11;;;;;;;14.60;9.30;;;;;;;-2.47;100.00;99833.04;109334;1252;65165;-75
2024/01/20 07:10:38;;;;;;;10.80;7.50;;;;;;;-2.41;100.00;99840.34;109517;1251;58986;-74
2024/01/20 07:13:05;;;;;;;11.60;8.10;;;;;;;-2.34;100.00;99839.98;109168;1251;59269;-73
2024/01/20 07:15:31;;;;;;;15.20;9.20;;;;;;;-2.29;100.00;99839.98;109397;1251;66976;-74
2024/01/20 07:17:58;;;;;;;11.30;8.30;;;;;;;-2.24;100.00;99847.81;109561;1251;61014;-75
2024/01/20 07:20:25;;;;;;;14.70;7.30;;;;;;;-2.19;100.00;99852.86;109299;1251;65002;-76
2024/01/20 07:22:51;;;;;;;16.40;8.30;;;;;;;-2.15;100.00;99852.49;109356;1252;59225;-74
2024/01/20 07:25:18;;;;;;;12.30;7.30;;;;;;;-2.11;100.00;99853.02;109344;1252;59052;-81
2024/01/20 07:27:45;;;;;;;12.90;8.50;;;;;;;-2.07;100.00;99853.16;109173;1252;67289;-78
2024/01/20 07:30:12;;;;;;;11.50;7.30;;;;;;;-2.04;100.00;99855.61;109281;1252;60280;-77
2024/01/20 07:32:40;;;;;;;11.10;7.80;;;;;;;-1.99;100.00;99855.60;109102;1257;62837;-78
2024/01/20 07:35:09;;;;;;;14.00;7.50;;;;;;;-1.94;100.00;99856.27;109218;1254;59150;-76
2024/01/20 07:37:36;;;;;;;12.40;8.40;;;;;;;-1.88;100.00;99864.61;109239;1256;59298;-77
2024/01/20 07:40:04;;;;;;;11.30;7.50;;;;;;;-1.83;100.00;99870.70;109203;1255;66039;-73
2024/01/20 07:42:32;;;;;;;13.30;7.50;;;;;;;-1.76;100.00;99872.77;109209;1255;61010;-79
2024/01/20 07:44:59;;;;;;;13.80;7.80;;;;;;;-1.71;100.00;99880.60;109200;1256;64213;-80
2024/01/20 07:47:26;;;;;;;11.70;8.30;;;;;;;-1.68;100.00;99882.67;109216;1255;58964;-80
2024/01/20 07:49:53;;;;;;;12.40;7.60;;;;;;;-1.65;100.00;99887.55;109249;1256;59055;-75
2024/01/20 07:52:20;;;;;;;15.80;8.10;;;;;;;-1.62;100.00;99892.59;109244;1256;67083;-79
2024/01/20 07:54:46;;;;;;;9.90;7.20;;;;;;;-1.59;100.00;99899.73;109215;1256;60981;-78
2024/01/20 07:57:13;;;;;;;13.00;7.90;;;;;;;-1.54;100.00;99902.15;109048;1256;63721;-80
2024/01/20 07:59:40;;;;;;;19.80;10.90;;;;;;;-1.49;100.00;99902.64;109185;1255;58987;-78
2024/01/20 08:02:06;;;;;;;24.20;12.60;;;;;;;-1.43;100.00;99897.23;109221;1255;58934;-76
2024/01/20 08:04:33;;;;;;;34.80;18.30;;;;;;;-1.39;100.00;99897.73;108489;1256;1002342;-76
2024/01/20 08:06:59;;;;;;;23.70;14.50;;;;;;;-1.35;100.00;99897.02;109368;1252;60015;-76
2024/01/20 08:09:26;;;;;;;32.00;16.10;;;;;;;-1.32;100.00;99900.50;108684;1252;1003055;-76
2024/01/20 08:11:52;;;;;;;36.20;18.30;;;;;;;-1.30;100.00;99898.91;108663;1252;1007130;-75
2024/01/20 08:14:19;;;;;;;18.50;11.40;;;;;;;-1.26;100.00;99894.90;108571;1253;1002860;-76
2024/01/20 08:16:46;;;;;;;12.70;9.30;;;;;;;-1.22;100.00;99895.92;109383;1253;59107;-76
2024/01/20 08:19:12;;;;;;;18.40;10.80;;;;;;;-1.20;100.00;99898.52;109427;1252;58958;-74
2024/01/20 08:21:39;;;;;;;16.40;8.20;;;;;;;-1.17;100.00;99900.79;109461;1251;59069;-76
2024/01/20 08:24:05;;;;;;;13.80;8.00;;;;;;;-1.14;100.00;99910.18;109383;1252;59194;-76
2024/01/20 08:26:32;;;;;;;15.00;9.30;;;;;;;-1.13;100.00;99914.89;109471;1252;59017;-76
2024/01/20 08:28:59;;;;;;;15.20;10.10;;;;;;;-1.09;100.00;99912.77;109406;1252;66961;-77
2024/01/20 08:31:27;;;;;;;14.90;9.20;;;;;;;-1.00;100.00;99913.42;109418;1252;61109;-77
2024/01/20 08:33:54;;;;;;;15.50;9.70;;;;;;;-0.95;100.00;99910.61;109450;1252;64105;-75
2024/01/20 08:36:21;;;;;;;13.50;9.90;;;;;;;-0.90;100.00;99908.13;109237;1253;59032;-77
2024/01/20 08:38:48;;;;;;;21.10;11.30;;;;;;;-0.80;100.00;99904.41;109512;1252;59145;-76
2024/01/20 08:41:16;;;;;;;18.60;9.70;;;;;;;-0.70;100.00;99891.43;109506;1252;67202;-75
2024/01/20 08:43:44;;;;;;;18.40;11.20;;;;;;;-0.64;100.00;99893.50;109390;1251;60694;-75
2024/01/20 08:46:11;;;;;;;17.20;9.40;;;;;;;-0.59;100.00;99899.91;109308;1253;64199;-76
2024/01/20 08:48:37;;;;;;;17.30;9.80;;;;;;;-0.51;100.00;99912.76;109560;1251;59031;-75
2024/01/20 08:51:04;;;;;;;14.50;8.70;;;;;;;-0.46;100.00;99923.89;109529;1251;59040;-75
2024/01/20 08:53:32;;;;;;;12.40;7.70;;;;;;;-0.41;100.00;99940.98;109308;1250;67000;-75
2024/01/20 08:56:03;;;;;;;12.90;8.50;;;;;;;-0.36;100.00;99946.17;109538;1250;61606;-77
2024/01/20 08:58:30;;;;;;;13.90;8.40;;;;;;;-0.32;100.00;99946.85;109517;1251;64271;-77
2024/01/20 09:00:56;;;;;;;12.80;8.10;;;;;;;-0.29;100.00;99945.95;109196;1256;59051;-77
2024/01/20 09:03:23;;;;;;;12.50;7.90;;;;;;;-0.28;100.00;99944.70;109521;1251;58885;-76
2024/01/20 09:05:50;;;;;;;14.50;8.70;;;;;;;-0.25;100.00;99942.42;109130;1254;66210;-75
2024/01/20 09:08:16;;;;;;;15.30;9.20;;;;;;;-0.16;100.00;99941.30;109422;1253;61079;-77
2024/01/20 09:10:43;;;;;;;15.40;9.50;;;;;;;-0.05;100.00;99945.92;109477;1252;64138;-77
2024/01/20 09:13:10;;;;;;;12.70;7.40;;;;;;;0.03;100.00;99944.98;109425;1252;59031;-76
2024/01/20 09:15:36;;;;;;;13.10;8.60;;;;;;;0.05;100.00;99944.61;109504;1252;59124;-75
2024/01/20 09:18:03;;;;;;;16.00;9.60;;;;;;;0.08;100.00;99945.11;109506;1251;66771;-76
2024/01/20 09:20:30;;;;;;;17.10;9.90;;;;;;;0.11;100.00;99943.87;109328;1251;60762;-76
2024/01/20 09:22:56;;;;;;;20.90;10.60;;;;;;;0.12;100.00;99954.16;109540;1251;64000;-75
2024/01/20 09:25:23;;;;;;;21.40;12.00;;;;;;;0.14;100.00;99955.20;109304;1251;58974;-76
2024/01/20 09:27:50;;;;;;;21.80;12.00;;;;;;;0.13;100.00;99954.15;109521;1251;58937;-77
2024/01/20 09:30:17;;;;;;;16.20;10.20;;;;;;;0.11;100.00;99956.80;109549;1251;64738;-76
2024/01/20 09:32:43;;;;;;;19.70;10.20;;;;;;;0.11;100.00;99962.05;109585;1251;61035;-74
2024/01/20 09:35:10;;;;;;;21.20;11.00;;;;;;;0.10;100.00;99957.86;109580;1251;65033;-77
2024/01/20 09:37:36;;;;;;;37.00;15.80;;;;;;;0.10;100.00;99961.00;109509;1251;59000;-76
2024/01/20 09:40:06;;;;;;;21.00;10.90;;;;;;;0.12;100.00;99960.80;109566;1251;58889;-76
2024/01/20 09:42:33;;;;;;;22.20;12.60;;;;;;;0.16;100.00;99959.54;109550;1250;67211;-76
2024/01/20 09:45:00;;;;;;;19.50;11.10;;;;;;;0.26;100.00;99955.08;109565;1251;61073;-76
2024/01/20 09:47:27;;;;;;;20.20;12.30;;;;;;;0.37;100.00;99953.59;108798;1251;1002450;-76
2024/01/20 09:49:53;;;;;;;19.60;11.40;;;;;;;0.46;100.00;99950.86;109483;1251;58999;-75
2024/01/20 09:52:28;;;;;;;18.30;11.50;;;;;;;0.56;100.00;99950.22;109501;1250;59051;-75
2024/01/20 09:55:09;;;;;;;21.20;12.30;;;;;;;0.60;100.00;99947.73;109506;1251;65824;-75
2024/01/20 09:57:38;;;;;;;20.50;11.00;;;;;;;0.61;100.00;99949.48;109540;1251;61065;-75
2024/01/20 10:00:08;;;;;;;19.20;10.70;;;;;;;0.64;100.00;99942.80;108445;1251;1002503;-76
2024/01/20 10:02:37;;;;;;;17.10;10.50;;;;;;;0.70;100.00;99939.76;109509;1251;58978;-75
2024/01/20 10:05:06;;;;;;;20.40;11.20;;;;;;;0.78;100.00;99945.41;109525;1251;59326;-76
2024/01/20 10:07:32;;;;;;;17.60;9.80;;;;;;;0.87;100.00;99943.92;109505;1250;66042;-76
2024/01/20 10:09:59;;;;;;;17.30;11.40;;;;;;;0.96;100.00;99941.18;109384;1251;60025;-76
2024/01/20 10:12:26;;;;;;;15.20;10.10;;;;;;;1.09;100.00;99939.63;109531;1251;65138;-77
2024/01/20 10:14:52;;;;;;;16.20;10.10;;;;;;;1.21;100.00;99936.30;109521;1251;58970;-75
2024/01/20 10:17:20;;;;;;;15.80;10.30;;;;;;;1.29;100.00;99934.44;109372;1251;59079;-75
2024/01/20 10:19:46;;;;;;;12.50;8.70;;;;;;;1.42;100.00;99936.71;109548;1251;67236;-75
2024/01/20 10:22:19;;;;;;;13.00;8.30;;;;;;;1.55;100.00;99936.70;109493;1253;61029;-75
2024/01/20 10:24:52;;;;;;;12.70;9.50;;;;;;;1.54;100.00;99937.41;109453;1252;63969;-76
2024/01/20 10:27:21;;;;;;;11.30;9.10;;;;;;;1.46;100.00;99938.77;109084;1252;59336;-76
2024/01/20 10:29:48;;;;;;;14.20;10.50;;;;;;;1.38;100.00;99934.15;109485;1252;61847;-77
2024/01/20 10:32:15;;;;;;;13.30;9.00;;;;;;;1.32;100.00;99929.33;109466;1253;67010;-75
2024/01/20 10:34:43;;;;;;;15.50;10.40;;;;;;;1.29;100.00;99928.84;109486;1252;61108;-76
2024/01/20 10:37:11;;;;;;;19.00;9.30;;;;;;;1.27;100.00;99932.36;109458;1252;65065;-75
2024/01/20 10:39:45;;;;;;;11.60;8.30;;;;;;;1.33;100.00;99934.39;109463;1252;59101;-80
2024/01/20 10:42:14;;;;;;;14.20;9.90;;;;;;;1.38;100.00;99930.99;109272;1252;59263;-74
2024/01/20 10:45:05;;;;;;;14.20;10.00;;;;;;;1.40;100.00;99931.31;109471;1253;65968;-76
2024/01/20 10:47:36;;;;;;;16.90;10.00;;;;;;;1.41;100.00;99931.30;109190;1253;60011;-76
2024/01/20 10:50:04;;;;;;;11.10;8.40;;;;;;;1.39;100.00;99929.41;109439;1252;65145;-75
2024/01/20 10:52:33;;;;;;;16.10;9.60;;;;;;;1.43;100.00;99929.35;109453;1252;59808;-76
2024/01/20 10:55:02;;;;;;;16.60;9.80;;;;;;;1.46;100.00;99925.96;109280;1252;59064;-76
2024/01/20 10:57:28;;;;;;;18.00;9.80;;;;;;;1.50;100.00;99922.59;109477;1252;67182;-76
2024/01/20 11:00:01;;;;;;;14.70;10.40;;;;;;;1.55;100.00;99919.72;109444;1252;60008;-75
2024/01/20 11:02:28;;;;;;;14.10;8.70;;;;;;;1.56;100.00;99914.44;109471;1253;64821;-76
2024/01/20 11:04:55;;;;;;;13.20;9.10;;;;;;;1.59;100.00;99914.04;109468;1252;58946;-77
2024/01/20 11:07:22;;;;;;;13.00;9.00;;;;;;;1.63;100.00;99915.55;109468;1253;58951;-75
2024/01/20 11:09:56;;;;;;;12.40;7.80;;;;;;;1.71;100.00;99918.05;109536;1252;67298;-75